Time;durP1;ratioP1;P1;durP2;ratioP2;P2;SDS_P1;SDS_P2;PMS_P1;PMS_P2;Temp;Humidity;BMP_temperature;BMP_pressure;BME280_temperature;BME280_humidity;BME280_pressure;Samples;Min_cycle;Max_cycle;Signal;HPM_P1;HPM_P2
2021/01/28 00:00:48;;;;;;;69.35;25.33;;;;;;;6.43;100.00;101082.75;4920287;28;20041;-80
2021/01/28 00:03:14;;;;;;;71.72;26.00;;;;;;;6.41;100.00;101080.22;4922941;29;20124;-80
2021/01/28 00:05:40;;;;;;;65.90;25.58;;;;;;;6.41;100.00;101064.31;4917692;29;20499;-72
2021/01/28 00:08:06;;;;;;;71.43;24.55;;;;;;;6.40;100.00;101053.81;4920985;29;20052;-72
2021/01/28 00:10:31;;;;;;;65.60;25.42;;;;;;;6.32;100.00;101032.38;4921318;29;22062;-72
2021/01/28 00:12:57;;;;;;;67.85;24.30;;;;;;;6.20;100.00;101015.63;4906618;29;20035;-72
2021/01/28 00:15:24;;;;;;;61.17;24.23;;;;;;;5.95;100.00;100965.38;4920319;29;20106;-72
2021/01/28 00:17:50;;;;;;;61.70;23.35;;;;;;;6.25;100.00;101016.94;4891147;29;20062;-79
2021/01/28 00:20:32;;;;;;;69.82;24.23;;;;;;;6.35;100.00;101032.97;4918657;29;20032;-72
2021/01/28 00:22:57;;;;;;;67.03;23.15;;;;;;;6.35;100.00;101027.66;4915594;29;20474;-72
2021/01/28 00:25:23;;;;;;;64.05;21.73;;;;;;;6.25;100.00;101000.22;4921980;29;20046;-72
2021/01/28 00:27:49;;;;;;;53.75;20.73;;;;;;;5.85;100.00;100940.56;4922511;29;20566;-72
2021/01/28 00:30:21;;;;;;;64.13;22.10;;;;;;;6.37;100.00;101011.66;4921682;29;20035;-72
2021/01/28 00:32:48;;;;;;;60.80;21.40;;;;;;;6.34;100.00;101018.03;4922141;29;20863;-72
2021/01/28 00:35:24;;;;;;;68.30;21.20;;;;;;;6.34;100.00;101011.91;4900158;29;20040;-72
2021/01/28 00:37:50;;;;;;;57.45;21.00;;;;;;;6.33;99.68;101010.22;4922324;29;20024;-74
2021/01/28 00:40:15;;;;;;;54.45;19.85;;;;;;;6.33;100.00;101015.50;4924322;28;20038;-72
2021/01/28 00:42:41;;;;;;;48.53;19.63;;;;;;;6.23;99.69;100986.22;4920741;29;20143;-72
2021/01/28 00:45:07;;;;;;;53.65;20.92;;;;;;;6.29;99.84;101001.66;4880268;29;20693;-72
2021/01/28 00:47:32;;;;;;;56.05;20.15;;;;;;;6.27;100.00;100993.00;4921225;28;20044;-72
2021/01/28 00:49:58;;;;;;;55.28;19.90;;;;;;;6.10;99.74;100963.34;4903837;29;20496;-72
2021/01/28 00:52:23;;;;;;;55.67;19.98;;;;;;;6.20;100.00;100978.53;4922598;28;20046;-72
2021/01/28 00:54:49;;;;;;;53.20;20.50;;;;;;;6.16;99.96;100966.50;4920359;29;20027;-72
2021/01/28 00:57:14;;;;;;;65.93;20.55;;;;;;;6.10;100.00;100959.88;4919403;28;20042;-72
2021/01/28 00:59:40;;;;;;;51.03;20.20;;;;;;;6.03;100.00;100963.97;4914568;29;20114;-72
2021/01/28 01:02:06;;;;;;;59.35;20.95;;;;;;;5.96;100.00;100967.06;4909030;29;20035;-72
2021/01/28 01:04:31;;;;;;;61.63;20.40;;;;;;;5.89;100.00;100957.91;4920302;28;20051;-72
2021/01/28 01:06:57;;;;;;;57.95;21.45;;;;;;;5.82;100.00;100949.59;4921575;29;20256;-72
2021/01/28 01:09:24;;;;;;;60.65;21.90;;;;;;;5.79;100.00;100941.88;4914996;29;20039;-72
2021/01/28 01:11:51;;;;;;;61.47;22.27;;;;;;;5.85;100.00;100942.38;4918373;29;20042;-80
2021/01/28 01:14:17;;;;;;;56.08;21.10;;;;;;;5.78;100.00;100942.00;4922973;29;20788;-72
2021/01/28 01:16:42;;;;;;;55.30;22.58;;;;;;;5.56;100.00;100927.81;4920571;29;20036;-72
2021/01/28 01:19:09;;;;;;;56.35;22.65;;;;;;;5.64;100.00;100951.88;4921097;29;20044;-72
2021/01/28 01:21:34;;;;;;;53.00;22.27;;;;;;;5.02;100.00;100856.00;4915590;28;20082;-72
2021/01/28 01:24:00;;;;;;;53.72;21.92;;;;;;;5.49;100.00;100929.22;4930709;29;20031;-80
2021/01/28 01:26:25;;;;;;;49.42;22.38;;;;;;;5.44;100.00;100928.72;4940603;28;20034;-72
2021/01/28 01:28:51;;;;;;;55.00;23.52;;;;;;;5.41;100.00;100928.97;4923311;29;20027;-72
2021/01/28 01:31:16;;;;;;;54.78;23.27;;;;;;;5.40;100.00;100917.53;4937800;28;20406;-72
2021/01/28 01:33:42;;;;;;;54.92;23.50;;;;;;;5.32;100.00;100915.47;4924273;29;20077;-72
2021/01/28 01:36:07;;;;;;;66.75;23.98;;;;;;;5.28;100.00;100913.19;4939460;28;20031;-73
2021/01/28 01:38:33;;;;;;;59.83;22.83;;;;;;;5.25;100.00;100908.97;4929026;29;20042;-72
2021/01/28 01:40:59;;;;;;;70.40;24.95;;;;;;;5.21;100.00;100905.72;4923013;29;20728;-72
2021/01/28 01:43:24;;;;;;;108.10;24.65;;;;;;;5.21;100.00;100911.00;4924514;29;20150;-72
2021/01/28 01:45:56;;;;;;;78.10;25.35;;;;;;;5.08;100.00;100894.38;4917345;29;20359;-72
2021/01/28 01:48:30;;;;;;;68.10;25.67;;;;;;;5.05;100.00;100915.78;4908165;29;20607;-80
2021/01/28 01:51:03;;;;;;;129.38;27.45;;;;;;;5.10;100.00;100903.03;4924468;29;20035;-72
2021/01/28 01:53:33;;;;;;;92.10;25.50;;;;;;;4.81;100.00;100853.19;4923579;29;20707;-73
2021/01/28 01:56:04;;;;;;;114.03;27.17;;;;;;;4.98;100.00;100883.66;4912163;29;20114;-72
2021/01/28 01:58:41;;;;;;;122.07;27.35;;;;;;;4.99;100.00;100882.69;4909716;29;20035;-80
2021/01/28 02:01:06;;;;;;;114.13;26.90;;;;;;;4.87;100.00;100855.34;4905103;29;20067;-80
2021/01/28 02:03:32;;;;;;;124.28;28.02;;;;;;;4.89;100.00;100842.00;4924249;29;20031;-73
2021/01/28 02:06:27;;;;;;;138.82;29.15;;;;;;;4.93;100.00;100850.56;4922211;29;20566;-72
2021/01/28 02:08:54;;;;;;;222.13;29.77;;;;;;;4.77;100.00;100814.72;4932891;28;20046;-72
2021/01/28 02:11:19;;;;;;;110.20;28.83;;;;;;;4.89;100.00;100818.22;4923150;29;20039;-72
2021/01/28 02:13:45;;;;;;;174.95;29.80;;;;;;;4.46;100.00;100729.78;4885577;29;20506;-72
2021/01/28 02:16:11;;;;;;;143.82;31.02;;;;;;;4.97;100.00;100821.13;4904057;29;20040;-73
2021/01/28 02:18:37;;;;;;;114.32;28.38;;;;;;;4.90;100.00;100796.94;4925223;29;20130;-73
2021/01/28 02:21:22;;;;;;;116.07;28.27;;;;;;;5.02;100.00;100813.66;4937594;28;20118;-72
2021/01/28 02:24:03;;;;;;;160.65;27.55;;;;;;;4.96;100.00;100813.28;4921887;28;20034;-73
2021/01/28 02:26:28;;;;;;;140.77;29.63;;;;;;;4.71;100.00;100779.00;4924111;29;20090;-81
2021/01/28 02:28:54;;;;;;;133.45;30.98;;;;;;;4.83;100.00;100803.66;4903809;29;20035;-80
2021/01/28 02:31:19;;;;;;;123.90;29.10;;;;;;;4.93;100.00;100817.03;4909192;29;20038;-72
2021/01/28 02:33:51;;;;;;;130.77;29.88;;;;;;;4.93;100.00;100813.56;4908947;29;20375;-73
2021/01/28 02:36:17;;;;;;;120.68;29.20;;;;;;;4.94;100.00;100815.25;4931702;28;20166;-73
2021/01/28 02:38:42;;;;;;;112.90;30.70;;;;;;;4.96;100.00;100810.66;4919955;29;20138;-73
2021/01/28 02:41:08;;;;;;;163.77;31.05;;;;;;;4.98;100.00;100806.94;4923502;29;20033;-80
2021/01/28 02:43:34;;;;;;;111.60;29.40;;;;;;;5.00;100.00;100788.31;4908980;29;20577;-72
2021/01/28 02:46:01;;;;;;;177.00;30.17;;;;;;;4.62;100.00;100731.28;4920983;29;20036;-72
2021/01/28 02:48:26;;;;;;;143.73;28.42;;;;;;;5.02;100.00;100789.88;4921221;29;20487;-72
2021/01/28 02:50:52;;;;;;;105.82;28.10;;;;;;;4.98;100.00;100804.31;4918196;28;20027;-72
2021/01/28 02:53:18;;;;;;;89.13;28.02;;;;;;;4.45;100.00;100709.63;4926109;29;20046;-72
2021/01/28 02:55:44;;;;;;;91.45;28.45;;;;;;;4.99;100.00;100797.19;4925672;29;20279;-73
2021/01/28 02:58:09;;;;;;;83.78;28.15;;;;;;;5.01;100.00;100795.28;4923777;28;20031;-72
2021/01/28 03:00:35;;;;;;;91.82;28.30;;;;;;;5.01;100.00;100795.28;4914649;29;20031;-72
2021/01/28 03:03:02;;;;;;;92.97;27.73;;;;;;;4.97;100.00;100786.75;4904946;29;20031;-72
2021/01/28 03:05:27;;;;;;;107.63;28.75;;;;;;;4.99;100.00;100789.25;4922812;29;20517;-73
2021/01/28 03:07:53;;;;;;;80.53;27.90;;;;;;;5.02;100.00;100794.31;4927653;29;20074;-72
2021/01/28 03:10:20;;;;;;;80.65;25.67;;;;;;;4.83;100.00;100752.59;4925031;29;20048;-72
2021/01/28 03:12:45;;;;;;;74.93;26.80;;;;;;;4.87;100.00;100751.41;4902575;29;20059;-72
2021/01/28 03:15:13;;;;;;;82.22;26.00;;;;;;;5.04;100.00;100780.00;4922199;29;20124;-80
2021/01/28 03:17:38;;;;;;;78.45;26.40;;;;;;;4.97;100.00;100746.22;4935641;28;20019;-72
2021/01/28 03:20:08;;;;;;;78.60;26.00;;;;;;;5.05;100.00;100771.13;4923475;29;20046;-80
2021/01/28 03:22:33;;;;;;;72.30;24.33;;;;;;;5.04;100.00;100761.50;4905499;29;20035;-72
2021/01/28 03:24:59;;;;;;;74.07;24.33;;;;;;;5.02;100.00;100765.22;4906402;29;20478;-72
2021/01/28 03:27:24;;;;;;;74.13;26.10;;;;;;;5.01;100.00;100753.81;4938136;28;20328;-72
2021/01/28 03:29:50;;;;;;;73.43;24.52;;;;;;;4.93;100.00;100728.94;4925853;29;20042;-72
2021/01/28 03:32:15;;;;;;;58.60;23.05;;;;;;;5.03;100.00;100740.47;4895554;29;20360;-80
2021/01/28 03:34:41;;;;;;;66.90;24.15;;;;;;;5.00;100.00;100730.97;4907258;29;20053;-80
2021/01/28 03:37:07;;;;;;;62.78;23.13;;;;;;;4.85;100.00;100706.56;4923683;29;20032;-72
2021/01/28 03:39:32;;;;;;;58.72;22.45;;;;;;;5.06;100.00;100727.00;4915029;29;20940;-79
2021/01/28 03:41:58;;;;;;;79.00;25.23;;;;;;;5.07;100.00;100728.69;4906980;29;20035;-72
2021/01/28 03:44:23;;;;;;;70.78;25.33;;;;;;;5.08;100.00;100729.53;4921734;28;20057;-72
2021/01/28 03:46:49;;;;;;;82.18;26.70;;;;;;;5.07;100.00;100720.75;4921937;29;20035;-72
2021/01/28 03:49:14;;;;;;;85.65;27.20;;;;;;;5.06;100.00;100719.91;4939494;28;20023;-73
2021/01/28 03:51:40;;;;;;;105.22;26.58;;;;;;;5.04;100.00;100716.53;4905171;29;20563;-80
2021/01/28 03:54:05;;;;;;;77.28;25.48;;;;;;;4.88;100.00;100687.81;4921627;29;20956;-72
2021/01/28 03:56:31;;;;;;;80.50;26.73;;;;;;;5.07;100.00;100710.19;4905444;29;20031;-72
2021/01/28 03:58:56;;;;;;;82.07;27.42;;;;;;;5.09;100.00;100699.47;4918531;29;20444;-72
2021/01/28 04:01:22;;;;;;;175.75;26.75;;;;;;;5.05;100.00;100694.41;4922339;29;20062;-79
2021/01/28 04:03:47;;;;;;;106.00;26.75;;;;;;;5.05;100.00;100680.34;4921759;29;20027;-71
2021/01/28 04:06:13;;;;;;;92.70;26.17;;;;;;;5.04;100.00;100687.44;4914760;29;20042;-72
2021/01/28 04:08:39;;;;;;;88.10;27.35;;;;;;;5.02;100.00;100670.00;4889846;29;20127;-70
2021/01/28 04:11:04;;;;;;;98.40;28.23;;;;;;;5.04;100.00;100663.63;4926626;29;20039;-71
2021/01/28 04:13:30;;;;;;;113.70;27.85;;;;;;;5.02;100.00;100660.25;4916379;29;20042;-71
2021/01/28 04:15:55;;;;;;;79.72;26.75;;;;;;;5.00;100.00;100653.41;4921004;29;20044;-71
2021/01/28 04:18:21;;;;;;;86.90;26.48;;;;;;;5.01;100.00;100650.69;4906421;29;20032;-72
2021/01/28 04:20:49;;;;;;;123.25;28.20;;;;;;;5.04;100.00;100641.66;4916200;29;20039;-72
2021/01/28 04:23:14;;;;;;;100.70;29.17;;;;;;;5.00;100.00;100634.91;4922916;29;21449;-79
2021/01/28 04:25:40;;;;;;;104.03;27.85;;;;;;;5.02;100.00;100625.88;4921225;29;20126;-72
2021/01/28 04:28:05;;;;;;;95.68;26.00;;;;;;;5.03;100.00;100619.63;4915455;29;20027;-71
2021/01/28 04:30:32;;;;;;;88.40;26.70;;;;;;;5.01;100.00;100607.50;4922077;29;20410;-75
2021/01/28 04:32:58;;;;;;;109.65;27.42;;;;;;;5.03;100.00;100613.50;4916173;29;20038;-72
2021/01/28 04:35:24;;;;;;;89.10;26.67;;;;;;;4.79;100.00;100576.63;4918961;29;20043;-71
2021/01/28 04:37:50;;;;;;;95.57;27.23;;;;;;;4.88;100.00;100574.09;4907121;29;20498;-72
2021/01/28 04:41:01;;;;;;;90.00;27.33;;;;;;;5.03;100.00;100587.06;4925647;29;20027;-72
2021/01/28 04:43:28;;;;;;;94.32;26.83;;;;;;;5.03;100.00;100576.47;4933235;28;20178;-72
2021/01/28 04:45:55;;;;;;;91.63;27.77;;;;;;;5.02;100.00;100574.81;4903244;29;20042;-71
2021/01/28 04:48:21;;;;;;;77.65;26.55;;;;;;;5.01;100.00;100570.47;4903794;29;20054;-72
2021/01/28 04:50:46;;;;;;;112.38;27.33;;;;;;;5.01;100.00;100547.53;4918343;29;20122;-72
2021/01/28 04:53:42;;;;;;;88.47;26.48;;;;;;;5.08;100.00;100550.50;4908687;29;20038;-71
2021/01/28 04:56:14;;;;;;;89.60;27.95;;;;;;;5.09;100.00;100538.94;4920173;29;20146;-72
2021/01/28 04:58:39;;;;;;;108.93;29.20;;;;;;;5.10;100.00;100537.16;4903460;29;20028;-71
2021/01/28 05:01:05;;;;;;;94.05;27.40;;;;;;;4.95;100.00;100500.41;4907265;29;20036;-71
2021/01/28 05:03:34;;;;;;;133.90;29.35;;;;;;;5.12;100.00;100516.72;4930013;28;20123;-72
2021/01/28 05:06:00;;;;;;;112.20;27.30;;;;;;;5.17;100.00;100520.66;4935230;28;20035;-71
2021/01/28 05:08:25;;;;;;;101.45;29.13;;;;;;;5.18;100.00;100510.91;4902999;29;20045;-71
2021/01/28 05:10:56;;;;;;;133.60;31.33;;;;;;;5.10;100.00;100484.25;4918727;29;20047;-71
2021/01/28 05:13:29;;;;;;;125.60;30.52;;;;;;;5.12;100.00;100487.63;4906194;29;20079;-71
2021/01/28 05:15:56;;;;;;;134.68;30.70;;;;;;;5.22;100.00;100488.53;4915694;29;20116;-71
2021/01/28 05:18:23;;;;;;;188.23;32.15;;;;;;;5.25;100.00;100480.34;4916686;29;20046;-71
2021/01/28 05:20:48;;;;;;;135.52;30.38;;;;;;;5.12;100.00;100459.34;4920106;29;20036;-71
2021/01/28 05:23:31;;;;;;;130.55;30.98;;;;;;;5.04;100.00;100433.53;4904095;29;20414;-71
2021/01/28 05:25:57;;;;;;;133.32;30.80;;;;;;;5.24;100.00;100446.91;4918810;29;20019;-71
2021/01/28 05:28:29;;;;;;;132.38;30.85;;;;;;;5.26;100.00;100446.78;4923022;28;20583;-71
2021/01/28 05:30:54;;;;;;;128.55;31.02;;;;;;;5.24;100.00;100443.41;4916956;29;20073;-71
2021/01/28 05:33:30;;;;;;;94.13;28.13;;;;;;;5.29;100.00;100438.59;4897090;29;20411;-71
2021/01/28 05:36:10;;;;;;;114.65;29.05;;;;;;;5.27;100.00;100435.22;4920882;29;20441;-70
2021/01/28 05:38:38;;;;;;;98.57;27.55;;;;;;;5.04;100.00;100390.38;4921335;29;20736;-71
2021/01/28 05:41:04;;;;;;;106.50;29.75;;;;;;;5.16;100.00;100412.31;4915871;29;20041;-71
2021/01/28 05:43:35;;;;;;;98.80;28.42;;;;;;;5.23;100.00;100421.41;4920949;29;20043;-71
2021/01/28 05:46:16;;;;;;;109.43;29.58;;;;;;;5.06;100.00;100386.63;4890670;29;20115;-70
2021/01/28 05:48:42;;;;;;;96.65;27.38;;;;;;;4.97;100.00;100368.91;4917238;29;20098;-70
2021/01/28 05:51:14;;;;;;;96.68;28.83;;;;;;;5.23;100.00;100392.31;4918276;28;20035;-70
2021/01/28 05:53:39;;;;;;;95.50;31.20;;;;;;;5.17;100.00;100393.69;4920682;29;20148;-70
2021/01/28 05:56:10;;;;;;;102.38;29.25;;;;;;;5.19;100.00;100391.75;4921839;29;20122;-71
2021/01/28 05:58:48;;;;;;;91.55;28.70;;;;;;;5.19;100.00;100383.81;4918008;28;21206;-71
2021/01/28 06:01:32;;;;;;;105.30;29.17;;;;;;;5.22;100.00;100382.72;4905568;29;20154;-71
2021/01/28 06:04:22;;;;;;;82.13;27.65;;;;;;;5.23;100.00;100376.44;4900695;29;20024;-71
2021/01/28 06:07:01;;;;;;;93.78;29.95;;;;;;;5.25;100.00;100381.59;4909194;29;20527;-72
2021/01/28 06:09:36;;;;;;;87.32;29.67;;;;;;;5.26;100.00;100375.34;4922786;29;20102;-71
2021/01/28 06:12:07;;;;;;;94.85;28.45;;;;;;;5.25;100.00;100371.00;4939714;28;20054;-78
2021/01/28 06:14:38;;;;;;;98.60;31.25;;;;;;;5.28;100.00;100374.25;4924824;29;20055;-71
2021/01/28 06:17:22;;;;;;;86.50;30.63;;;;;;;5.31;100.00;100367.88;4924229;29;20090;-71
2021/01/28 06:20:23;;;;;;;87.97;30.63;;;;;;;5.31;100.00;100365.22;4939954;28;20035;-71
2021/01/28 06:23:04;;;;;;;100.50;32.95;;;;;;;5.30;100.00;100363.53;4919245;29;20068;-71
2021/01/28 06:26:05;;;;;;;95.70;30.88;;;;;;;5.35;100.00;100348.13;4916636;29;20066;-71
2021/01/28 06:29:08;;;;;;;87.03;29.02;;;;;;;5.35;100.00;100351.59;4922937;29;20040;-71
2021/01/28 06:31:43;;;;;;;95.47;30.75;;;;;;;5.31;100.00;100344.03;4926166;29;20019;-71
2021/01/28 06:34:44;;;;;;;98.32;31.77;;;;;;;5.31;100.00;100338.75;4924732;29;20435;-78
2021/01/28 06:37:28;;;;;;;96.80;32.20;;;;;;;5.31;100.00;100341.41;4920711;28;20027;-71
2021/01/28 06:39:53;;;;;;;88.38;28.95;;;;;;;5.34;100.00;100328.75;4918175;29;20573;-71
2021/01/28 06:42:36;;;;;;;100.35;30.98;;;;;;;5.30;100.00;100322.03;4899427;29;20119;-71
2021/01/28 06:45:10;;;;;;;98.88;28.95;;;;;;;5.34;100.00;100318.16;4919263;29;20036;-71
2021/01/28 06:47:40;;;;;;;76.03;27.95;;;;;;;5.35;100.00;100297.84;4922789;29;20150;-71
2021/01/28 06:50:34;;;;;;;76.50;26.20;;;;;;;5.37;100.00;100285.28;4926278;29;20119;-77
2021/01/28 06:53:10;;;;;;;77.90;26.30;;;;;;;5.27;100.00;100255.31;4924219;28;20063;-71
2021/01/28 06:56:02;;;;;;;73.53;25.10;;;;;;;5.36;100.00;100268.59;4906651;29;20391;-78
2021/01/28 06:58:40;;;;;;;67.70;25.33;;;;;;;5.33;100.00;100263.56;4925595;29;20036;-72
2021/01/28 07:01:22;;;;;;;67.10;24.02;;;;;;;5.34;100.00;100252.00;4920249;29;20031;-72
2021/01/28 07:04:42;;;;;;;64.32;23.55;;;;;;;5.34;100.00;100246.72;4914865;28;20447;-78
2021/01/28 07:07:13;;;;;;;58.85;22.88;;;;;;;5.21;100.00;100206.44;4958439;28;20043;-78
2021/01/28 07:09:45;;;;;;;57.53;23.30;;;;;;;5.34;100.00;100225.53;4936062;28;20142;-71
2021/01/28 07:12:12;;;;;;;67.40;24.75;;;;;;;5.34;100.00;100237.97;4923790;29;20030;-71
2021/01/28 07:14:37;;;;;;;64.10;23.30;;;;;;;5.29;100.00;100211.06;4907083;29;20035;-71
2021/01/28 07:17:13;;;;;;;64.70;22.58;;;;;;;5.35;100.00;100215.81;4917937;29;20058;-71
2021/01/28 07:19:48;;;;;;;54.53;21.67;;;;;;;5.35;100.00;100218.47;4923468;29;20028;-71
2021/01/28 07:22:31;;;;;;;49.60;19.05;;;;;;;5.36;100.00;100220.97;4925857;29;20051;-72
2021/01/28 07:25:17;;;;;;;53.08;19.33;;;;;;;5.35;100.00;100210.53;4912126;29;20106;-78
2021/01/28 07:27:58;;;;;;;57.88;20.77;;;;;;;5.37;100.00;100205.91;4919433;29;20488;-78
2021/01/28 07:30:41;;;;;;;54.90;20.65;;;;;;;5.38;100.00;100201.47;4921159;29;20082;-77
2021/01/28 07:33:27;;;;;;;53.13;19.20;;;;;;;5.41;100.00;100202.03;4919907;29;20039;-72
2021/01/28 07:36:22;;;;;;;48.20;18.63;;;;;;;5.39;100.00;100196.03;4924836;28;20054;-78
2021/01/28 07:38:52;;;;;;;46.38;18.00;;;;;;;5.38;100.00;100194.34;4924408;29;20130;-78
2021/01/28 07:41:20;;;;;;;47.60;18.25;;;;;;;5.06;100.00;100148.59;4917925;29;20361;-78
2021/01/28 07:43:48;;;;;;;55.47;18.25;;;;;;;5.39;100.00;100196.03;4917897;29;20035;-78
2021/01/28 07:46:25;;;;;;;41.92;16.70;;;;;;;5.41;100.00;100188.81;4923386;29;20079;-77
2021/01/28 07:49:20;;;;;;;43.27;16.67;;;;;;;5.47;100.00;100188.28;4920814;29;20071;-71
2021/01/28 07:51:57;;;;;;;38.35;15.27;;;;;;;5.44;100.00;100182.38;4899866;29;20691;-72
2021/01/28 07:54:26;;;;;;;44.38;15.57;;;;;;;5.44;100.00;100179.75;4919606;29;20455;-78
2021/01/28 07:57:07;;;;;;;41.78;15.35;;;;;;;5.41;100.00;100175.56;4918818;29;20028;-77
2021/01/28 07:59:58;;;;;;;41.47;15.55;;;;;;;5.41;100.00;100175.56;4917495;29;20047;-71
2021/01/28 08:02:31;;;;;;;34.00;14.65;;;;;;;5.35;100.00;100157.59;4915566;29;20065;-71
2021/01/28 08:05:08;;;;;;;38.00;13.82;;;;;;;5.34;100.00;100159.41;4917658;29;20067;-72
2021/01/28 08:07:36;;;;;;;29.15;11.35;;;;;;;5.38;100.00;100153.84;4914598;29;20062;-78
2021/01/28 08:10:09;;;;;;;27.80;12.57;;;;;;;5.33;100.00;100163.03;4917892;29;20122;-78
2021/01/28 08:12:45;;;;;;;28.42;11.27;;;;;;;5.35;100.00;100155.78;4900711;29;20517;-78
2021/01/28 08:15:16;;;;;;;31.05;11.40;;;;;;;5.36;100.00;100143.41;4883486;29;20178;-71
2021/01/28 08:17:41;;;;;;;30.35;11.32;;;;;;;5.11;100.00;100108.53;4916436;29;20031;-79
2021/01/28 08:20:20;;;;;;;31.50;12.07;;;;;;;5.31;100.00;100141.16;4936458;28;20051;-71
2021/01/28 08:23:04;;;;;;;28.40;10.35;;;;;;;5.31;100.00;100135.03;4923699;29;20063;-71
2021/01/28 08:25:35;;;;;;;26.27;9.93;;;;;;;5.35;100.00;100139.09;4912839;29;20042;-70
2021/01/28 08:28:12;;;;;;;22.45;10.10;;;;;;;5.36;100.00;100135.47;4917630;29;20170;-71
2021/01/28 08:30:38;;;;;;;26.55;10.65;;;;;;;5.31;100.00;100127.91;4917585;29;20679;-70
2021/01/28 08:33:05;;;;;;;32.58;10.80;;;;;;;5.13;100.00;100103.13;4901869;29;20126;-70
2021/01/28 08:35:33;;;;;;;24.73;10.32;;;;;;;5.32;100.00;100123.47;4898066;29;20031;-70
2021/01/28 08:38:13;;;;;;;21.98;10.00;;;;;;;5.26;100.00;100113.44;4893563;29;20119;-70
2021/01/28 08:40:39;;;;;;;25.92;9.80;;;;;;;5.31;100.00;100114.69;4914315;29;20561;-70
2021/01/28 08:43:11;;;;;;;24.38;9.30;;;;;;;5.25;100.00;100104.66;4912594;29;20023;-70
2021/01/28 08:45:36;;;;;;;22.95;9.38;;;;;;;5.34;100.00;100114.41;4898413;29;20032;-70
2021/01/28 08:48:04;;;;;;;22.70;8.38;;;;;;;5.37;100.00;100113.31;4917355;29;20063;-70
2021/01/28 08:50:30;;;;;;;21.25;8.93;;;;;;;5.04;100.00;100062.44;4919748;29;20114;-70
2021/01/28 08:53:01;;;;;;;24.48;9.00;;;;;;;5.20;100.00;100077.78;4919060;29;20047;-69
2021/01/28 08:55:29;;;;;;;18.50;7.97;;;;;;;5.31;100.00;100103.28;4896614;29;20130;-70
2021/01/28 08:58:28;;;;;;;19.40;7.63;;;;;;;5.36;100.00;100095.78;4917341;29;20036;-70
2021/01/28 09:00:59;;;;;;;16.10;7.78;;;;;;;5.30;100.00;100094.50;4919418;29;20046;-70
2021/01/28 09:03:33;;;;;;;16.98;8.18;;;;;;;5.31;100.00;100092.69;4898987;29;20063;-70
2021/01/28 09:06:00;;;;;;;17.38;7.97;;;;;;;5.31;100.00;100098.00;4904222;29;20028;-70
2021/01/28 09:08:35;;;;;;;15.70;8.20;;;;;;;5.28;100.00;100100.91;4912965;29;20047;-70
2021/01/28 09:11:18;;;;;;;16.15;8.50;;;;;;;5.25;100.00;100096.72;4919524;29;20119;-69
2021/01/28 09:14:02;;;;;;;17.63;8.40;;;;;;;5.21;100.00;100100.63;4916161;29;20426;-69
2021/01/28 09:16:28;;;;;;;15.02;8.52;;;;;;;5.23;100.00;100098.69;4919212;29;20039;-69
2021/01/28 09:18:54;;;;;;;20.17;9.85;;;;;;;5.27;100.00;100096.59;4900012;29;20115;-69
2021/01/28 09:21:23;;;;;;;19.83;8.88;;;;;;;5.05;100.00;100057.00;4913993;29;20510;-69
2021/01/28 09:23:56;;;;;;;15.98;8.45;;;;;;;5.23;100.00;100082.81;4901049;29;20119;-70
2021/01/28 09:26:24;;;;;;;16.90;9.13;;;;;;;5.20;100.00;100086.56;4915721;29;20127;-69
2021/01/28 09:28:50;;;;;;;16.27;8.40;;;;;;;5.24;100.00;100084.47;4917087;29;20059;-69
2021/01/28 09:31:29;;;;;;;20.23;9.88;;;;;;;5.04;100.00;100052.69;4919260;29;20119;-78
2021/01/28 09:33:55;;;;;;;17.08;10.25;;;;;;;5.24;100.00;100073.03;4899920;29;20031;-69
2021/01/28 09:36:27;;;;;;;18.30;9.63;;;;;;;5.17;100.00;100059.53;4917588;29;20114;-70
2021/01/28 09:39:07;;;;;;;21.92;10.15;;;;;;;5.20;100.00;100068.06;4903081;29;20082;-70
2021/01/28 09:41:38;;;;;;;20.23;10.45;;;;;;;5.24;100.00;100063.31;4923694;29;20507;-70
2021/01/28 09:44:27;;;;;;;19.92;10.52;;;;;;;5.25;100.00;100066.78;4904176;29;20027;-70
2021/01/28 09:47:11;;;;;;;18.92;10.77;;;;;;;4.86;100.00;100007.56;4920267;29;20038;-70
2021/01/28 09:49:37;;;;;;;20.67;10.48;;;;;;;5.16;100.00;100064.00;4912889;29;20027;-70
2021/01/28 09:52:02;;;;;;;16.17;10.13;;;;;;;5.00;100.00;100037.25;4930073;29;20032;-70
2021/01/28 09:54:33;;;;;;;16.92;9.27;;;;;;;5.13;100.00;100058.97;4925935;29;20381;-70
2021/01/28 09:57:00;;;;;;;14.68;8.68;;;;;;;5.07;100.00;100041.03;4928304;29;20039;-70
2021/01/28 09:59:25;;;;;;;17.65;10.27;;;;;;;5.17;100.00;100059.53;4930394;29;20115;-69
2021/01/28 10:01:51;;;;;;;17.05;10.05;;;;;;;5.15;100.00;100069.44;4927839;29;20123;-70
2021/01/28 10:04:17;;;;;;;20.15;11.10;;;;;;;5.09;100.00;100060.22;4921684;29;20131;-70
2021/01/28 10:06:42;;;;;;;19.88;11.10;;;;;;;4.90;100.00;100018.72;4926155;29;20557;-70
2021/01/28 10:09:08;;;;;;;17.08;10.60;;;;;;;4.82;100.00;100008.81;4928468;29;20688;-70
2021/01/28 10:11:34;;;;;;;16.65;9.98;;;;;;;5.05;100.00;100045.63;4893712;29;20589;-70
2021/01/28 10:14:00;;;;;;;13.93;9.70;;;;;;;5.09;100.00;100068.16;4931017;29;20118;-70
2021/01/28 10:16:27;;;;;;;14.00;9.82;;;;;;;4.93;100.00;100038.78;4931659;29;20055;-70
2021/01/28 10:18:52;;;;;;;14.95;9.48;;;;;;;5.03;100.00;100061.59;4922779;29;20040;-70
2021/01/28 10:21:18;;;;;;;16.88;9.82;;;;;;;5.02;100.00;100067.03;4929897;29;20024;-70
2021/01/28 10:23:43;;;;;;;15.63;10.32;;;;;;;5.01;100.00;100060.91;4928993;29;20111;-69
2021/01/28 10:26:09;;;;;;;16.35;9.38;;;;;;;5.04;100.00;100060.63;4922793;29;20126;-69
2021/01/28 10:28:35;;;;;;;10.57;7.50;;;;;;;4.46;100.00;99974.09;4928821;29;20035;-69
2021/01/28 10:31:02;;;;;;;11.38;8.38;;;;;;;5.04;100.00;100076.50;4929735;29;20052;-69
2021/01/28 10:33:28;;;;;;;11.10;7.75;;;;;;;4.86;100.00;100041.94;4930251;29;20138;-68
2021/01/28 10:35:54;;;;;;;13.77;8.85;;;;;;;5.04;100.00;100065.09;4913983;29;20028;-71
2021/01/28 10:38:19;;;;;;;12.95;8.57;;;;;;;5.07;100.00;100059.53;4930317;29;20119;-69
2021/01/28 10:40:45;;;;;;;9.77;7.68;;;;;;;5.08;100.00;100061.22;4931431;29;20506;-69
2021/01/28 10:43:10;;;;;;;10.82;7.43;;;;;;;5.09;100.00;100064.69;4928013;29;20514;-69
2021/01/28 10:45:37;;;;;;;8.73;6.88;;;;;;;5.09;100.00;100059.38;4927203;29;20154;-69
2021/01/28 10:48:03;;;;;;;9.85;7.07;;;;;;;5.10;100.00;100064.53;4931023;29;20036;-69
2021/01/28 10:50:29;;;;;;;9.23;7.38;;;;;;;5.13;100.00;100058.97;4930939;29;20026;-69
2021/01/28 10:52:55;;;;;;;10.10;7.82;;;;;;;4.94;100.00;100028.03;4921633;29;20023;-69
2021/01/28 10:55:21;;;;;;;9.57;7.10;;;;;;;5.12;100.00;100054.66;4919239;29;20043;-69
2021/01/28 10:57:46;;;;;;;8.98;7.18;;;;;;;5.11;100.00;100052.97;4938892;28;20028;-69
2021/01/28 11:00:13;;;;;;;8.27;7.05;;;;;;;5.20;100.00;100057.47;4917914;29;20036;-74
2021/01/28 11:02:38;;;;;;;8.63;6.75;;;;;;;4.85;100.00;99997.97;4928289;29;20054;-69
2021/01/28 11:05:08;;;;;;;7.68;6.75;;;;;;;5.18;100.00;100050.63;4912002;29;20051;-69
2021/01/28 11:07:33;;;;;;;8.20;6.80;;;;;;;5.19;100.00;100042.56;4916603;29;20056;-75
2021/01/28 11:09:59;;;;;;;6.97;6.20;;;;;;;5.21;100.00;100042.41;4926262;29;20138;-70
2021/01/28 11:12:24;;;;;;;7.43;6.40;;;;;;;5.10;100.00;100048.66;4930549;29;20067;-70
2021/01/28 11:14:50;;;;;;;7.20;6.38;;;;;;;5.18;100.00;100050.63;4932362;29;20035;-70
2021/01/28 11:17:15;;;;;;;7.90;6.45;;;;;;;5.25;100.00;100049.13;4928865;29;20028;-74
2021/01/28 11:19:41;;;;;;;7.72;6.05;;;;;;;5.22;100.00;100042.28;4922778;29;20036;-70
2021/01/28 11:22:07;;;;;;;11.20;6.63;;;;;;;5.23;100.00;100040.47;4930770;29;20613;-70
2021/01/28 11:24:32;;;;;;;7.95;5.97;;;;;;;5.22;100.00;100036.16;4937826;28;20491;-75